Time;durP1;ratioP1;P1;durP2;ratioP2;P2;SDS_P1;SDS_P2;PMS_P1;PMS_P2;Temp;Humidity;BMP_temperature;BMP_pressure;BME280_temperature;BME280_humidity;BME280_pressure;Samples;Min_cycle;Max_cycle;Signal;HPM_P1;HPM_P2
2023/03/27 00:00:52;;;;;;;6.85;1.10;;;1.30;1.00;;;;;;5056415;28;20116;-85
2023/03/27 00:03:19;;;;;;;9.10;1.15;;;1.30;1.00;;;;;;5053054;28;20040;-85
2023/03/27 00:05:45;;;;;;;7.47;1.20;;;1.30;1.00;;;;;;5086230;28;20044;-85
2023/03/27 00:08:12;;;;;;;11.05;1.80;;;1.30;1.00;;;;;;5053971;28;20075;-83
2023/03/27 00:10:38;;;;;;;4.45;1.00;;;1.30;1.00;;;;;;5072145;28;20397;-83
2023/03/27 00:13:06;;;;;;;15.80;1.70;;;1.30;1.00;;;;;;5097235;28;20063;-83
2023/03/27 00:15:33;;;;;;;12.63;1.65;;;1.30;1.00;;;;;;5060316;28;20131;-83
2023/03/27 00:18:02;;;;;;;8.80;1.10;;;1.30;1.00;;;;;;5068830;28;20074;-83
2023/03/27 00:20:30;;;;;;;9.43;1.25;;;1.60;72.30;;;;;;5065989;28;20952;-84
2023/03/27 00:22:55;;;;;;;6.00;0.95;;;1.80;99.90;;;;;;5067530;28;20084;-84
2023/03/27 00:25:27;;;;;;;4.55;1.08;;;1.90;99.90;;;;;;5078116;28;20039;-83
2023/03/27 00:27:55;;;;;;;6.82;1.20;;;2.00;99.90;;;;;;5071320;28;20535;-83
2023/03/27 00:30:22;;;;;;;3.47;1.15;;;1.90;99.90;;;;;;5052932;28;20040;-83
2023/03/27 00:32:48;;;;;;;7.93;1.20;;;1.80;99.90;;;;;;5062570;28;20055;-86
2023/03/27 00:35:14;;;;;;;8.10;1.20;;;1.70;99.90;;;;;;5070564;28;20052;-86
2023/03/27 00:37:40;;;;;;;7.03;1.00;;;1.60;99.90;;;;;;5045292;28;20052;-86
2023/03/27 00:40:18;;;;;;;3.70;0.98;;;1.60;99.90;;;;;;5056651;28;20044;-85
2023/03/27 00:42:45;;;;;;;6.50;1.30;;;1.60;99.90;;;;;;5081177;28;20065;-87
2023/03/27 00:45:37;;;;;;;11.07;2.13;;;1.50;99.90;;;;;;5067279;28;20041;-87
2023/03/27 00:48:07;;;;;;;11.25;3.50;;;1.40;99.90;;;;;;5075095;28;20063;-87
2023/03/27 00:50:37;;;;;;;11.27;1.90;;;1.30;99.90;;;;;;5077426;28;20080;-87
2023/03/27 00:53:18;;;;;;;6.07;1.85;;;1.30;99.90;;;;;;5072793;28;20075;-87
2023/03/27 00:55:47;;;;;;;10.88;1.88;;;1.20;99.90;;;;;;5053918;28;20063;-87
2023/03/27 00:58:17;;;;;;;14.43;2.33;;;1.20;99.90;;;;;;5056817;28;20068;-86
2023/03/27 01:00:42;;;;;;;8.85;2.67;;;1.10;99.90;;;;;;5055116;28;20059;-86
2023/03/27 01:03:10;;;;;;;9.73;1.60;;;1.00;99.90;;;;;;5050129;28;20051;-87
2023/03/27 01:05:36;;;;;;;8.73;1.45;;;1.00;99.90;;;;;;5058220;28;20123;-87
2023/03/27 01:08:02;;;;;;;7.63;1.42;;;1.00;99.90;;;;;;5060222;28;20052;-87
2023/03/27 01:11:02;;;;;;;6.35;1.17;;;0.90;99.90;;;;;;5069923;28;20111;-87
2023/03/27 01:13:51;;;;;;;7.32;1.20;;;0.90;99.90;;;;;;5065177;28;20075;-87
2023/03/27 01:16:35;;;;;;;12.05;1.20;;;0.90;99.90;;;;;;5077582;28;20123;-87
2023/03/27 01:19:20;;;;;;;6.18;1.23;;;1.00;99.90;;;;;;5068356;28;20493;-88
2023/03/27 01:22:08;;;;;;;5.65;1.20;;;0.90;99.90;;;;;;5054480;28;20079;-88
2023/03/27 01:25:06;;;;;;;7.97;2.03;;;1.00;99.90;;;;;;5060329;28;20505;-88
2023/03/27 01:27:38;;;;;;;8.30;1.05;;;1.00;99.90;;;;;;5074524;28;20127;-87
2023/03/27 01:30:14;;;;;;;9.65;0.90;;;1.00;99.90;;;;;;5055137;28;20048;-84
2023/03/27 01:32:45;;;;;;;5.68;0.90;;;1.00;99.90;;;;;;5072298;28;20401;-84
2023/03/27 01:35:33;;;;;;;8.45;0.98;;;1.00;99.90;;;;;;5074710;28;20390;-85
2023/03/27 01:38:30;;;;;;;3.63;0.80;;;0.90;99.90;;;;;;5086945;28;20076;-84
2023/03/27 01:41:05;;;;;;;3.70;0.80;;;0.90;99.90;;;;;;5075449;28;20082;-84
2023/03/27 01:43:36;;;;;;;12.27;1.13;;;0.90;99.90;;;;;;5074571;28;20177;-84
2023/03/27 01:46:40;;;;;;;5.88;0.93;;;0.90;99.90;;;;;;5054161;28;20036;-85
2023/03/27 01:49:52;;;;;;;7.30;1.27;;;0.90;99.90;;;;;;5058905;28;20134;-85
2023/03/27 01:52:23;;;;;;;4.50;1.15;;;0.90;99.90;;;;;;5050115;28;20389;-84
2023/03/27 01:54:56;;;;;;;6.43;0.93;;;0.90;99.90;;;;;;5079410;28;20044;-84
2023/03/27 01:57:26;;;;;;;11.32;0.80;;;0.90;99.90;;;;;;5054253;28;20198;-85
2023/03/27 01:59:58;;;;;;;6.60;1.00;;;0.90;99.90;;;;;;5056724;28;20051;-87
2023/03/27 02:02:31;;;;;;;4.03;0.75;;;0.90;99.90;;;;;;5070382;28;20048;-87
2023/03/27 02:05:12;;;;;;;7.40;0.80;;;0.80;99.90;;;;;;5058913;28;20067;-86
2023/03/27 02:07:44;;;;;;;6.22;0.88;;;0.80;99.90;;;;;;5070742;28;20093;-86
2023/03/27 02:10:16;;;;;;;7.05;2.42;;;0.90;99.90;;;;;;5071129;28;20109;-87
2023/03/27 02:12:49;;;;;;;11.93;2.15;;;0.80;99.90;;;;;;5068343;28;20048;-87
2023/03/27 02:15:22;;;;;;;5.60;1.25;;;0.80;99.90;;;;;;5070197;28;20059;-87
2023/03/27 02:18:06;;;;;;;4.55;0.93;;;0.90;99.90;;;;;;5054092;28;20059;-87
2023/03/27 02:20:33;;;;;;;14.85;2.47;;;0.90;99.90;;;;;;5087461;28;20040;-87
2023/03/27 02:22:59;;;;;;;3.88;1.13;;;0.80;99.90;;;;;;5095568;28;20511;-87
2023/03/27 02:25:31;;;;;;;6.70;0.80;;;0.80;99.90;;;;;;5058097;28;20036;-87
2023/03/27 02:28:24;;;;;;;4.53;0.75;;;0.80;99.90;;;;;;5079611;28;20055;-86
2023/03/27 02:30:52;;;;;;;6.43;0.80;;;0.80;99.90;;;;;;5065826;28;20147;-86
2023/03/27 02:33:45;;;;;;;5.53;1.42;;;0.90;99.90;;;;;;5065501;28;20052;-84
2023/03/27 02:36:45;;;;;;;4.10;0.80;;;0.90;99.90;;;;;;5062051;28;20047;-83
2023/03/27 02:39:21;;;;;;;3.63;1.05;;;0.90;99.90;;;;;;5060293;28;20072;-85
2023/03/27 02:42:02;;;;;;;5.22;1.25;;;0.90;99.90;;;;;;5070711;28;20489;-84
2023/03/27 02:44:42;;;;;;;8.68;1.55;;;1.10;99.90;;;;;;5071261;28;20119;-84
2023/03/27 02:47:19;;;;;;;9.88;1.77;;;1.10;99.90;;;;;;5077543;28;20040;-86
2023/03/27 02:50:02;;;;;;;6.78;1.05;;;1.30;99.90;;;;;;5039026;28;20059;-87
2023/03/27 02:52:41;;;;;;;4.85;0.85;;;1.30;99.90;;;;;;5058064;28;20052;-86
2023/03/27 02:55:19;;;;;;;4.05;0.80;;;1.50;99.90;;;;;;5066811;28;20054;-86
2023/03/27 02:57:50;;;;;;;4.70;1.23;;;1.50;99.90;;;;;;5055668;28;20127;-87
2023/03/27 03:00:24;;;;;;;12.75;2.08;;;1.50;99.90;;;;;;5088999;28;20036;-86
2023/03/27 03:02:59;;;;;;;7.13;0.93;;;1.50;99.90;;;;;;5070934;28;20060;-86
2023/03/27 03:05:25;;;;;;;7.47;1.02;;;1.50;99.90;;;;;;5063548;28;20115;-86
2023/03/27 03:07:53;;;;;;;5.18;0.93;;;1.50;99.90;;;;;;5058743;28;20044;-86
2023/03/27 03:10:20;;;;;;;8.57;0.90;;;1.50;99.90;;;;;;5052388;28;20039;-86
2023/03/27 03:12:46;;;;;;;6.00;0.88;;;1.40;99.90;;;;;;5070443;28;20115;-86
2023/03/27 03:15:12;;;;;;;6.28;0.88;;;1.40;99.90;;;;;;5043486;28;20461;-84
2023/03/27 03:17:37;;;;;;;3.45;0.70;;;1.30;99.90;;;;;;5053205;28;20075;-85
2023/03/27 03:20:04;;;;;;;4.45;0.88;;;1.30;99.90;;;;;;5070012;28;20730;-85
2023/03/27 03:22:30;;;;;;;14.30;1.30;;;1.20;99.90;;;;;;5041053;28;20481;-85
2023/03/27 03:24:56;;;;;;;7.22;1.13;;;1.20;99.90;;;;;;5054896;28;20047;-85
2023/03/27 03:27:22;;;;;;;8.10;1.15;;;1.10;99.90;;;;;;5057826;28;20046;-84
2023/03/27 03:29:48;;;;;;;5.65;0.80;;;1.10;99.90;;;;;;5070137;28;20044;-85
2023/03/27 03:32:14;;;;;;;4.50;1.40;;;1.10;99.90;;;;;;5054512;28;20101;-85
2023/03/27 03:34:40;;;;;;;8.85;1.15;;;1.10;99.90;;;;;;5057803;28;20044;-84
2023/03/27 03:37:09;;;;;;;8.60;1.75;;;1.10;99.90;;;;;;5072703;28;20052;-84
2023/03/27 03:39:35;;;;;;;7.63;0.98;;;1.10;99.90;;;;;;5067225;28;20044;-85
2023/03/27 03:42:01;;;;;;;10.57;1.42;;;1.10;99.90;;;;;;5087984;28;20040;-85
2023/03/27 03:44:27;;;;;;;11.88;1.85;;;1.00;99.90;;;;;;5034602;28;20556;-84
2023/03/27 03:46:52;;;;;;;8.23;1.25;;;1.00;99.90;;;;;;5071502;28;20054;-84
2023/03/27 03:49:18;;;;;;;9.07;1.42;;;1.10;99.90;;;;;;5033983;28;20044;-85
2023/03/27 03:51:44;;;;;;;6.60;1.27;;;1.10;99.90;;;;;;5071607;28;20090;-85
2023/03/27 03:54:10;;;;;;;7.00;1.42;;;1.10;99.90;;;;;;5090961;28;20083;-85
2023/03/27 03:56:40;;;;;;;5.05;1.48;;;1.00;99.90;;;;;;5043939;28;20555;-84
2023/03/27 03:59:07;;;;;;;11.90;2.08;;;1.00;99.90;;;;;;5058075;28;20052;-84
2023/03/27 04:01:33;;;;;;;9.40;3.80;;;1.00;99.90;;;;;;5063025;28;20432;-85
2023/03/27 04:03:59;;;;;;;11.98;2.50;;;0.80;99.90;;;;;;5057059;28;20058;-85
2023/03/27 04:06:24;;;;;;;8.13;3.35;;;0.90;99.90;;;;;;5053745;28;20048;-85
2023/03/27 04:08:51;;;;;;;5.13;2.10;;;0.90;99.90;;;;;;5076726;28;20071;-85
2023/03/27 04:11:18;;;;;;;12.50;4.40;;;0.90;99.90;;;;;;5055452;28;20040;-85
2023/03/27 04:13:43;;;;;;;7.50;3.15;;;1.00;99.90;;;;;;5077262;28;20057;-84
2023/03/27 04:16:09;;;;;;;9.25;3.03;;;1.00;99.90;;;;;;5063747;28;20130;-85
2023/03/27 04:18:38;;;;;;;7.43;2.58;;;1.00;99.90;;;;;;5029297;28;20077;-85
2023/03/27 04:21:04;;;;;;;7.63;1.85;;;1.00;99.90;;;;;;5071219;28;20082;-85
2023/03/27 04:23:29;;;;;;;5.63;1.60;;;0.90;99.90;;;;;;5059431;28;20052;-85
2023/03/27 04:25:59;;;;;;;5.50;1.23;;;0.90;99.90;;;;;;5070152;28;20046;-85
2023/03/27 04:28:33;;;;;;;4.07;1.25;;;0.90;99.90;;;;;;5072351;28;20465;-85
2023/03/27 04:31:05;;;;;;;4.53;1.10;;;1.00;99.90;;;;;;5076932;28;20051;-85
2023/03/27 04:33:38;;;;;;;5.53;1.33;;;1.10;99.90;;;;;;5069623;28;20048;-84
2023/03/27 04:36:05;;;;;;;7.03;1.73;;;1.20;99.90;;;;;;5051204;28;20074;-86
2023/03/27 04:38:32;;;;;;;5.03;1.05;;;1.30;99.90;;;;;;5048152;28;20055;-84
2023/03/27 04:40:58;;;;;;;5.63;1.20;;;1.40;99.90;;;;;;5055510;28;20054;-84
2023/03/27 04:43:26;;;;;;;4.55;1.58;;;1.40;99.90;;;;;;5052064;28;20051;-84
2023/03/27 04:45:52;;;;;;;7.45;1.27;;;1.50;99.90;;;;;;5033318;28;20044;-84
2023/03/27 04:48:19;;;;;;;4.57;1.50;;;1.60;99.90;;;;;;5057199;28;20059;-85
2023/03/27 04:50:49;;;;;;;8.43;1.13;;;1.70;99.90;;;;;;5068645;28;20055;-85
2023/03/27 04:53:16;;;;;;;5.30;0.90;;;1.70;99.90;;;;;;5052377;28;20060;-83
2023/03/27 04:55:49;;;;;;;10.07;2.22;;;1.80;99.90;;;;;;5050709;28;20516;-84
2023/03/27 04:58:16;;;;;;;9.70;1.30;;;1.70;99.90;;;;;;5060196;28;20162;-83
2023/03/27 05:00:49;;;;;;;5.88;0.90;;;1.70;99.90;;;;;;5056140;28;20052;-83
2023/03/27 05:03:18;;;;;;;8.98;1.23;;;1.60;99.90;;;;;;5058593;28;20048;-82
2023/03/27 05:05:49;;;;;;;7.35;1.55;;;1.60;99.90;;;;;;5041502;28;20040;-84
2023/03/27 05:08:16;;;;;;;8.27;1.67;;;1.50;99.90;;;;;;5070724;28;20048;-84
2023/03/27 05:10:42;;;;;;;3.78;1.20;;;1.50;99.90;;;;;;5071325;28;20052;-84
2023/03/27 05:13:08;;;;;;;12.77;1.95;;;1.40;99.90;;;;;;5085867;28;20048;-86
2023/03/27 05:15:34;;;;;;;8.85;1.70;;;1.40;99.90;;;;;;5054686;28;20167;-84
2023/03/27 05:18:01;;;;;;;7.95;1.80;;;1.40;99.90;;;;;;5038143;28;20064;-82
2023/03/27 05:20:27;;;;;;;3.20;1.23;;;1.40;99.90;;;;;;5074905;28;20048;-84
2023/03/27 05:22:55;;;;;;;8.82;1.48;;;1.40;99.90;;;;;;5069526;28;20049;-84
2023/03/27 05:25:21;;;;;;;5.43;1.48;;;1.40;99.90;;;;;;5062098;28;20146;-84
2023/03/27 05:27:48;;;;;;;8.73;1.98;;;1.40;99.90;;;;;;5075535;28;20048;-88
2023/03/27 05:30:16;;;;;;;4.10;1.05;;;1.50;99.90;;;;;;5054959;28;20078;-88
2023/03/27 05:32:53;;;;;;;8.68;1.45;;;1.60;99.90;;;;;;5067986;28;20055;-85
2023/03/27 05:35:22;;;;;;;6.65;1.52;;;1.60;99.90;;;;;;5070746;28;20464;-90
2023/03/27 05:37:49;;;;;;;10.88;1.30;;;1.60;99.90;;;;;;5071516;28;20044;-89
2023/03/27 05:40:19;;;;;;;5.43;1.63;;;1.60;99.90;;;;;;5043575;28;20127;-88
2023/03/27 05:42:45;;;;;;;7.10;1.23;;;1.60;99.90;;;;;;5053668;28;20044;-85
2023/03/27 05:45:12;;;;;;;9.68;1.60;;;1.60;99.90;;;;;;5053971;28;20036;-88
2023/03/27 05:47:58;;;;;;;5.30;1.02;;;1.60;99.90;;;;;;5056959;28;20489;-87
2023/03/27 05:50:27;;;;;;;8.38;1.00;;;1.60;99.90;;;;;;5054394;28;20032;-88
2023/03/27 05:52:58;;;;;;;3.88;1.25;;;1.50;99.90;;;;;;5086299;28;20992;-89
2023/03/27 05:55:24;;;;;;;3.13;0.90;;;1.70;99.90;;;;;;5087492;28;20048;-86
2023/03/27 05:57:50;;;;;;;6.78;1.02;;;1.60;99.90;;;;;;5055245;28;20085;-85
2023/03/27 06:00:21;;;;;;;5.15;0.85;;;1.70;99.90;;;;;;5071920;28;20083;-86
2023/03/27 06:02:48;;;;;;;2.97;0.82;;;1.90;99.90;;;;;;5068976;28;20048;-83
2023/03/27 06:05:14;;;;;;;4.95;0.80;;;2.10;99.90;;;;;;5052954;28;20185;-86
2023/03/27 06:07:44;;;;;;;6.55;0.70;;;2.20;99.90;;;;;;5054377;28;20054;-86
2023/03/27 06:10:12;;;;;;;7.05;0.80;;;2.40;99.90;;;;;;5065983;28;20045;-85
2023/03/27 06:12:37;;;;;;;3.20;0.57;;;2.60;81.40;;;;;;5065780;28;20056;-85
2023/03/27 06:15:04;;;;;;;3.95;0.35;;;2.80;31.90;;;;;;5048437;28;20044;-85
2023/03/27 06:17:30;;;;;;;2.00;0.30;;;2.90;38.50;;;;;;5042518;28;20083;-86
2023/03/27 06:19:56;;;;;;;1.85;0.40;;;2.90;19.50;;;;;;5054137;28;20070;-85
2023/03/27 06:22:22;;;;;;;4.57;0.50;;;2.90;67.40;;;;;;5047236;28;20060;-85
2023/03/27 06:24:48;;;;;;;4.00;0.43;;;2.90;96.00;;;;;;5063044;28;20177;-84
2023/03/27 06:27:13;;;;;;;4.50;0.50;;;3.00;99.90;;;;;;5049044;28;20041;-84
2023/03/27 06:29:39;;;;;;;4.28;0.60;;;2.90;99.90;;;;;;5066921;28;20105;-84
2023/03/27 06:32:05;;;;;;;4.80;1.20;;;3.00;99.90;;;;;;5066260;28;20119;-86
2023/03/27 06:34:30;;;;;;;5.70;1.92;;;2.90;99.90;;;;;;5061806;28;20044;-83
2023/03/27 06:36:58;;;;;;;4.75;1.48;;;2.90;99.90;;;;;;5059842;28;20048;-87
2023/03/27 06:39:26;;;;;;;5.57;0.90;;;2.90;99.90;;;;;;5071212;28;20058;-84
2023/03/27 06:41:52;;;;;;;4.78;0.88;;;2.90;99.90;;;;;;5052349;28;20090;-84
2023/03/27 06:44:17;;;;;;;5.05;1.10;;;2.90;99.90;;;;;;5051993;28;20052;-87
2023/03/27 06:46:43;;;;;;;7.10;1.20;;;2.90;99.90;;;;;;5051202;28;20041;-85
2023/03/27 06:49:10;;;;;;;4.88;1.15;;;2.80;99.90;;;;;;5064180;28;20051;-85
2023/03/27 06:51:36;;;;;;;13.05;1.35;;;2.80;99.90;;;;;;5056872;28;20504;-87
2023/03/27 06:54:03;;;;;;;3.83;1.05;;;2.80;99.90;;;;;;5042196;28;20052;-84
2023/03/27 06:56:30;;;;;;;8.10;1.60;;;2.80;99.90;;;;;;5055368;28;20052;-87
2023/03/27 06:58:55;;;;;;;5.03;0.98;;;2.80;99.90;;;;;;5084943;28;20047;-85
2023/03/27 07:01:22;;;;;;;3.88;0.90;;;2.80;99.90;;;;;;5068290;28;20482;-87
2023/03/27 07:03:48;;;;;;;2.78;0.55;;;2.70;99.90;;;;;;5035440;28;20059;-86
2023/03/27 07:06:15;;;;;;;7.40;1.75;;;2.80;99.90;;;;;;5050401;28;20033;-85
2023/03/27 07:08:40;;;;;;;2.15;0.52;;;2.80;99.90;;;;;;5060460;28;20101;-87
2023/03/27 07:11:07;;;;;;;4.13;0.82;;;2.70;99.90;;;;;;5066785;28;20474;-87
2023/03/27 07:13:32;;;;;;;8.80;1.05;;;2.80;99.90;;;;;;5063347;28;20078;-86
2023/03/27 07:15:58;;;;;;;12.93;1.20;;;2.80;99.90;;;;;;5040950;28;20044;-84
2023/03/27 07:18:24;;;;;;;5.35;1.00;;;2.80;99.90;;;;;;5051761;28;20032;-85
2023/03/27 07:20:50;;;;;;;2.67;0.98;;;2.90;99.90;;;;;;5044917;28;20132;-86
2023/03/27 07:23:16;;;;;;;6.72;0.70;;;3.00;99.90;;;;;;5062228;28;20047;-86
2023/03/27 07:25:41;;;;;;;3.58;1.30;;;3.00;99.90;;;;;;5038559;28;20049;-85
2023/03/27 07:28:12;;;;;;;5.60;0.90;;;3.10;99.90;;;;;;5068231;28;20113;-84
2023/03/27 07:30:38;;;;;;;5.70;0.70;;;3.20;99.90;;;;;;5067970;28;20051;-85
2023/03/27 07:33:08;;;;;;;5.47;1.05;;;3.30;1.00;;;;;;5050176;28;20048;-86
2023/03/27 07:35:41;;;;;;;7.43;1.25;;;3.40;1.00;;;;;;5072074;28;20063;-85
2023/03/27 07:38:07;;;;;;;3.20;1.25;;;3.50;1.00;;;;;;5073490;28;20044;-86
2023/03/27 07:40:34;;;;;;;2.78;0.80;;;3.60;1.00;;;;;;5037719;28;20052;-85
2023/03/27 07:43:00;;;;;;;8.48;2.47;;;3.70;1.00;;;;;;5057319;28;20508;-83
2023/03/27 07:45:26;;;;;;;8.63;1.30;;;3.70;1.00;;;;;;5056693;28;20040;-86
2023/03/27 07:47:52;;;;;;;7.75;2.10;;;3.90;1.00;;;;;;5054036;28;20137;-87
2023/03/27 07:50:20;;;;;;;14.77;4.65;;;3.90;1.00;;;;;;5063376;28;20394;-84
2023/03/27 07:52:48;;;;;;;9.45;2.17;;;4.10;1.00;;;;;;5079891;28;20058;-86
2023/03/27 07:55:17;;;;;;;8.48;1.08;;;4.40;1.00;;;;;;5051513;28;20410;-84
2023/03/27 07:57:48;;;;;;;4.72;0.70;;;4.80;1.00;;;;;;5047285;28;20048;-85
2023/03/27 08:00:16;;;;;;;6.68;1.15;;;5.20;99.90;;;;;;5090494;28;20545;-86
2023/03/27 08:02:44;;;;;;;10.05;1.10;;;5.50;99.90;;;;;;5060127;28;20481;-86
2023/03/27 08:05:10;;;;;;;8.77;1.20;;;5.60;99.90;;;;;;5073033;28;20048;-87
2023/03/27 08:07:37;;;;;;;5.40;0.52;;;5.40;99.90;;;;;;5043362;28;20050;-85
2023/03/27 08:10:05;;;;;;;2.50;0.68;;;5.10;99.90;;;;;;5065806;28;20679;-83
2023/03/27 08:12:32;;;;;;;3.53;0.63;;;4.90;99.90;;;;;;5063192;28;20052;-87
2023/03/27 08:14:58;;;;;;;4.43;0.70;;;4.80;99.90;;;;;;5054502;28;20048;-85
2023/03/27 08:17:28;;;;;;;10.18;1.40;;;4.60;99.90;;;;;;5069299;28;20259;-86
2023/03/27 08:19:54;;;;;;;4.68;0.70;;;4.30;99.90;;;;;;5063571;28;20498;-87
2023/03/27 08:22:21;;;;;;;4.70;0.70;;;4.10;99.90;;;;;;5062030;28;20512;-87
2023/03/27 08:24:48;;;;;;;5.43;0.80;;;3.90;1.00;;;;;;5063702;28;20052;-87
2023/03/27 08:27:14;;;;;;;5.40;1.10;;;3.80;99.90;;;;;;5081922;28;20052;-85
2023/03/27 08:29:41;;;;;;;2.80;0.90;;;3.70;1.00;;;;;;5061617;28;20040;-87
2023/03/27 08:32:09;;;;;;;5.50;0.98;;;3.60;1.00;;;;;;5066666;28;20047;-83
2023/03/27 08:34:34;;;;;;;4.38;0.80;;;3.60;1.00;;;;;;5045403;28;20044;-87
2023/03/27 08:37:00;;;;;;;3.63;0.60;;;3.60;1.00;;;;;;5020953;28;20041;-88
2023/03/27 08:39:29;;;;;;;5.93;1.10;;;3.60;1.00;;;;;;5056532;28;20041;-88
2023/03/27 08:41:56;;;;;;;3.17;0.77;;;3.60;1.00;;;;;;5040049;28;20471;-87
2023/03/27 08:44:25;;;;;;;6.43;1.23;;;3.60;1.00;;;;;;5054521;28;20052;-87
2023/03/27 08:47:03;;;;;;;6.13;0.90;;;3.60;1.00;;;;;;5066667;28;20386;-87
2023/03/27 08:49:37;;;;;;;3.97;0.88;;;3.70;1.00;;;;;;5054444;28;20122;-87
2023/03/27 08:52:27;;;;;;;4.53;1.00;;;3.80;1.00;;;;;;5070451;28;20110;-86
2023/03/27 08:55:17;;;;;;;2.92;0.93;;;3.90;1.00;;;;;;5054897;28;20056;-86
2023/03/27 08:57:43;;;;;;;6.60;1.10;;;4.00;99.90;;;;;;5054265;28;20067;-87
2023/03/27 09:00:21;;;;;;;5.15;1.13;;;4.20;99.90;;;;;;5054204;28;20401;-83
2023/03/27 09:02:57;;;;;;;6.43;1.88;;;4.40;99.90;;;;;;5049366;28;20580;-87
2023/03/27 09:05:28;;;;;;;5.93;0.80;;;4.50;99.90;;;;;;5069220;28;20099;-87
2023/03/27 09:08:06;;;;;;;3.45;0.95;;;4.70;99.90;;;;;;5036769;28;20044;-87
2023/03/27 09:10:49;;;;;;;4.53;0.82;;;4.90;99.90;;;;;;5061316;28;20052;-85
2023/03/27 09:13:26;;;;;;;3.88;0.75;;;5.00;99.90;;;;;;5062671;28;20068;-88
2023/03/27 09:15:57;;;;;;;3.88;1.08;;;5.10;99.90;;;;;;5066548;28;20052;-88
2023/03/27 09:18:32;;;;;;;6.18;0.60;;;5.50;99.90;;;;;;5035375;28;20160;-87
2023/03/27 09:21:16;;;;;;;7.68;0.93;;;6.10;99.90;;;;;;5065668;28;20052;-89
2023/03/27 09:23:45;;;;;;;5.03;1.10;;;6.20;99.90;;;;;;5070721;28;20553;-88
2023/03/27 09:26:43;;;;;;;6.00;1.27;;;6.20;99.90;;;;;;5071663;28;20489;-88
2023/03/27 09:29:25;;;;;;;7.97;1.67;;;6.10;99.90;;;;;;5053870;28;20048;-87
2023/03/27 09:31:53;;;;;;;4.05;0.90;;;6.20;99.90;;;;;;5063389;28;21485;-88
2023/03/27 09:34:25;;;;;;;5.53;0.90;;;6.20;99.90;;;;;;5054769;28;20055;-88
2023/03/27 09:36:52;;;;;;;3.55;0.70;;;6.30;99.90;;;;;;5055016;28;20135;-88
2023/03/27 09:39:32;;;;;;;6.93;1.05;;;6.30;99.90;;;;;;5080589;28;20051;-88
2023/03/27 09:42:07;;;;;;;3.85;0.90;;;6.50;99.90;;;;;;5065128;28;20097;-85
2023/03/27 09:44:37;;;;;;;3.08;0.60;;;6.80;99.90;;;;;;5059155;28;20131;-87
2023/03/27 09:47:13;;;;;;;1.60;0.70;;;7.80;99.90;;;;;;5061358;28;20048;-87
2023/03/27 09:49:45;;;;;;;2.80;0.80;;;9.00;1.00;;;;;;5044630;28;20048;-87
2023/03/27 09:52:36;;;;;;;3.80;0.35;;;9.30;1.00;;;;;;5056199;28;20048;-88
2023/03/27 09:55:23;;;;;;;2.47;0.43;;;9.00;1.00;;;;;;5049514;28;20063;-88
2023/03/27 09:57:51;;;;;;;1.52;0.57;;;9.60;1.00;;;;;;5070870;28;20047;-87
2023/03/27 10:00:29;;;;;;;3.53;0.32;;;10.30;1.00;;;;;;5064670;28;20036;-83
2023/03/27 10:03:04;;;;;;;3.00;0.85;;;10.10;1.00;;;;;;5071494;28;20506;-88
2023/03/27 10:05:31;;;;;;;3.90;0.38;;;9.50;1.00;;;;;;5073368;28;20048;-88
2023/03/27 10:08:00;;;;;;;3.22;0.70;;;8.70;1.00;;;;;;5056817;28;20048;-83
2023/03/27 10:10:31;;;;;;;1.52;0.20;;;9.40;1.00;;;;;;5087582;28;20067;-87
2023/03/27 10:12:59;;;;;;;2.17;0.60;;;10.50;1.00;;;;;;5071279;28;20055;-88
2023/03/27 10:15:37;;;;;;;1.92;0.35;;;11.20;1.00;;;;;;5088207;28;20501;-88
2023/03/27 10:18:26;;;;;;;1.85;0.40;;;11.90;1.00;;;;;;5070399;28;20048;-88
2023/03/27 10:20:58;;;;;;;3.17;0.70;;;12.40;1.00;;;;;;5070611;28;20067;-87
2023/03/27 10:23:48;;;;;;;3.08;0.63;;;12.60;1.00;;;;;;5058981;28;20044;-87
2023/03/27 10:26:20;;;;;;;2.38;0.30;;;13.50;1.00;;;;;;5043508;28;20059;-86
2023/03/27 10:28:50;;;;;;;2.15;0.25;;;13.90;1.00;;;;;;5087228;28;20130;-87
2023/03/27 10:31:33;;;;;;;4.57;0.40;;;12.80;1.00;;;;;;5054832;28;20076;-87
2023/03/27 10:34:02;;;;;;;2.83;0.38;;;10.60;1.00;;;;;;5087025;28;20062;-87
2023/03/27 10:36:34;;;;;;;2.55;0.40;;;8.90;1.00;;;;;;5071836;28;20047;-86
2023/03/27 10:39:12;;;;;;;2.95;0.40;;;7.50;1.00;;;;;;5071443;28;20051;-87
2023/03/27 10:41:39;;;;;;;2.83;1.05;;;6.90;1.00;;;;;;5072128;28;20052;-85
2023/03/27 10:44:24;;;;;;;4.95;0.35;;;7.70;1.00;;;;;;5061830;28;20048;-88
2023/03/27 10:46:51;;;;;;;4.35;0.40;;;9.30;1.00;;;;;;5075980;28;20056;-86
2023/03/27 10:49:31;;;;;;;1.65;0.30;;;9.30;1.00;;;;;;5065793;28;20036;-88
2023/03/27 10:51:59;;;;;;;3.33;0.50;;;8.40;1.00;;;;;;5066362;28;20109;-88
2023/03/27 10:54:35;;;;;;;2.90;0.30;;;8.50;1.00;;;;;;5055514;28;20253;-83
2023/03/27 10:57:22;;;;;;;3.50;0.45;;;9.80;1.00;;;;;;5062415;28;20044;-85
2023/03/27 11:00:12;;;;;;;2.67;0.50;;;10.70;1.00;;;;;;5064896;28;20128;-86
2023/03/27 11:03:04;;;;;;;3.90;0.75;;;10.80;1.00;;;;;;5056913;28;20055;-85
2023/03/27 11:05:47;;;;;;;4.15;0.50;;;11.10;1.00;;;;;;5073064;28;20048;-87
2023/03/27 11:08:22;;;;;;;6.13;0.55;;;12.70;1.00;;;;;;5053264;28;20570;-87
2023/03/27 11:10:49;;;;;;;2.90;0.45;;;13.30;1.00;;;;;;5069160;28;20497;-87
2023/03/27 11:13:26;;;;;;;2.45;0.70;;;11.90;1.00;;;;;;5070749;28;20036;-87
2023/03/27 11:16:29;;;;;;;4.72;0.45;;;11.10;1.00;;;;;;5069115;28;20056;-86
2023/03/27 11:19:10;;;;;;;4.53;0.70;;;11.40;1.00;;;;;;5061619;28;20051;-88
2023/03/27 11:21:39;;;;;;;3.03;0.60;;;13.00;1.00;;;;;;5061120;28;20351;-86
2023/03/27 11:24:14;;;;;;;1.20;0.68;;;13.80;1.00;;;;;;5061328;28;20478;-83
2023/03/27 11:27:06;;;;;;;3.80;0.47;;;14.30;1.00;;;;;;5067776;28;20493;-86
2023/03/27 11:29:38;;;;;;;2.78;0.30;;;15.30;1.00;;;;;;5058351;28;20067;-87
2023/03/27 11:32:20;;;;;;;3.03;0.40;;;15.90;1.00;;;;;;5042800;28;20052;-87
2023/03/27 11:34:51;;;;;;;3.20;1.27;;;15.40;1.00;;;;;;5059592;28;20056;-87
2023/03/27 11:37:32;;;;;;;1.88;0.90;;;14.00;1.00;;;;;;5054454;28;20387;-85
2023/03/27 11:40:19;;;;;;;3.15;0.65;;;13.80;1.00;;;;;;5055240;28;20048;-87
2023/03/27 11:42:46;;;;;;;3.35;0.80;;;14.50;1.00;;;;;;5074390;28;20496;-87
2023/03/27 11:45:15;;;;;;;6.47;0.60;;;14.50;1.00;;;;;;5074483;28;20052;-88
2023/03/27 11:47:55;;;;;;;2.33;0.50;;;15.00;1.00;;;;;;5060725;28;20440;-87
2023/03/27 11:50:54;;;;;;;4.10;0.50;;;15.00;1.00;;;;;;5071248;28;20071;-88
2023/03/27 11:53:34;;;;;;;2.75;0.50;;;12.60;1.00;;;;;;5059415;28;20051;-84
2023/03/27 11:56:09;;;;;;;4.43;0.55;;;9.90;1.00;;;;;;5071498;28;20077;-86
2023/03/27 11:58:59;;;;;;;3.20;0.40;;;8.20;1.00;;;;;;5073114;28;20110;-86
2023/03/27 12:01:50;;;;;;;2.22;0.40;;;7.70;1.00;;;;;;5046510;28;20044;-87
2023/03/27 12:04:38;;;;;;;4.22;0.55;;;8.60;1.00;;;;;;5057623;28;20032;-86
2023/03/27 12:07:34;;;;;;;5.15;0.68;;;9.00;1.00;;;;;;5055103;28;20446;-86
2023/03/27 12:10:20;;;;;;;4.10;0.40;;;9.90;1.00;;;;;;5065950;28;20060;-87
2023/03/27 12:12:57;;;;;;;2.95;0.60;;;11.10;1.00;;;;;;5048679;28;20055;-88
2023/03/27 12:15:52;;;;;;;5.38;0.60;;;12.20;1.00;;;;;;5084444;28;20040;-86
2023/03/27 12:18:43;;;;;;;5.10;0.57;;;13.20;1.00;;;;;;5063994;28;20052;-87
2023/03/27 12:21:16;;;;;;;2.97;0.40;;;14.10;1.00;;;;;;5066359;28;20150;-87
2023/03/27 12:23:42;;;;;;;3.65;0.60;;;14.80;1.00;;;;;;5084165;28;20051;-87
2023/03/27 12:26:29;;;;;;;6.03;0.70;;;15.60;1.00;;;;;;5056893;28;20444;-86
2023/03/27 12:29:43;;;;;;;4.68;0.75;;;15.90;1.00;;;;;;5083206;28;20465;-87
2023/03/27 12:32:33;;;;;;;2.88;0.50;;;13.80;1.00;;;;;;5003988;28;20519;-85
2023/03/27 12:35:05;;;;;;;3.65;0.73;;;11.20;1.00;;;;;;5060030;28;20043;-85
2023/03/27 12:38:01;;;;;;;5.55;0.60;;;9.90;1.00;;;;;;5066360;28;20040;-86
2023/03/27 12:40:47;;;;;;;1.98;0.40;;;10.90;1.00;;;;;;5063946;28;20045;-86
2023/03/27 12:43:28;;;;;;;2.08;0.32;;;12.50;1.00;;;;;;5074896;28;20045;-85
2023/03/27 12:46:13;;;;;;;2.22;0.40;;;13.50;1.00;;;;;;5051124;28;20044;-86
2023/03/27 12:49:05;;;;;;;3.92;0.60;;;13.30;1.00;;;;;;5055363;28;20079;-83
2023/03/27 12:51:42;;;;;;;3.55;0.40;;;12.70;1.00;;;;;;5086877;28;20048;-87
2023/03/27 12:54:28;;;;;;;3.33;0.65;;;12.80;1.00;;;;;;5059200;28;20387;-84
2023/03/27 12:56:59;;;;;;;5.20;1.13;;;12.80;1.00;;;;;;5062945;28;20066;-84
2023/03/27 12:59:27;;;;;;;3.17;0.52;;;13.20;1.00;;;;;;5037203;28;20098;-86
2023/03/27 13:02:22;;;;;;;3.75;0.70;;;13.00;1.00;;;;;;5080901;28;20781;-86
2023/03/27 13:04:48;;;;;;;7.50;0.85;;;12.30;1.00;;;;;;5020136;28;20056;-87
2023/03/27 13:07:47;;;;;;;3.63;0.50;;;11.90;1.00;;;;;;5033680;28;20057;-86
2023/03/27 13:10:43;;;;;;;3.20;0.55;;;10.90;1.00;;;;;;5029301;28;20056;-82
2023/03/27 13:13:31;;;;;;;3.15;0.68;;;9.60;1.00;;;;;;5045045;28;20064;-86
2023/03/27 13:16:33;;;;;;;3.30;0.60;;;10.20;1.00;;;;;;5034771;28;20053;-87
2023/03/27 13:19:20;;;;;;;3.88;0.60;;;11.60;1.00;;;;;;5022895;28;20675;-86
2023/03/27 13:21:51;;;;;;;;;;;13.00;1.00;;;;;;5012773;28;20565;-86
2023/03/27 13:24:33;;;;;;;2.65;0.95;;;13.70;1.00;;;;;;5022790;28;20540;-86
2023/03/27 13:27:20;;;;;;;3.38;0.70;;;14.10;1.00;;;;;;5028250;28;20449;-86
2023/03/27 13:29:52;;;;;;;3.80;0.60;;;14.10;1.00;;;;;;5018086;28;20081;-87